Terminal Aerodrome Forecast
Issued by NWS

Home | Current Version | Previous Version | Text Only | Print | Product List | Glossary On
Versions: 1 2 3 4 5 6 7 8 9 10 11 12 13 14 15 16 17 18 19 20 21
000
FTUS44 KLZK 251735
TAFADF
TAF
KADF 251735Z 2518/2618 18005KT P6SM SCT050 SCT150
     FM252300 23007KT P6SM VCSH SCT050 BKN150
     FM260400 34007KT P6SM VCSH BKN050 OVC100 PROB30 2607/2613 6SM
      -TSRA BKN035CB OVC080=

USA.gov is the U.S. government's official web portal to all federal, state and local government web resources and services.